sensor_id;sensor_type;location;lat;lon;timestamp;P1;durP1;ratioP1;P2;durP2;ratioP2
16832;SDS011;8533;48.426;10.868;2024-02-26T00:00:10;10.43;;;5.13;;
16832;SDS011;8533;48.426;10.868;2024-02-26T00:02:36;8.13;;;5.23;;
16832;SDS011;8533;48.426;10.868;2024-02-26T00:05:04;7.60;;;4.90;;
16832;SDS011;8533;48.426;10.868;2024-02-26T00:07:31;9.13;;;5.03;;
16832;SDS011;8533;48.426;10.868;2024-02-26T00:09:56;9.23;;;4.77;;
16832;SDS011;8533;48.426;10.868;2024-02-26T00:12:21;9.03;;;5.33;;
16832;SDS011;8533;48.426;10.868;2024-02-26T00:14:47;6.57;;;4.50;;
16832;SDS011;8533;48.426;10.868;2024-02-26T00:17:14;8.67;;;5.23;;
16832;SDS011;8533;48.426;10.868;2024-02-26T00:19:40;6.67;;;4.83;;
16832;SDS011;8533;48.426;10.868;2024-02-26T00:22:05;9.43;;;4.83;;
16832;SDS011;8533;48.426;10.868;2024-02-26T00:24:30;6.93;;;4.40;;
16832;SDS011;8533;48.426;10.868;2024-02-26T00:26:56;8.47;;;5.00;;
16832;SDS011;8533;48.426;10.868;2024-02-26T00:29:21;7.37;;;4.70;;
16832;SDS011;8533;48.426;10.868;2024-02-26T00:31:46;7.63;;;4.73;;
16832;SDS011;8533;48.426;10.868;2024-02-26T00:34:12;10.53;;;5.50;;
16832;SDS011;8533;48.426;10.868;2024-02-26T00:36:37;9.00;;;5.33;;
16832;SDS011;8533;48.426;10.868;2024-02-26T00:39:02;11.40;;;5.70;;
16832;SDS011;8533;48.426;10.868;2024-02-26T00:41:28;11.43;;;5.37;;
16832;SDS011;8533;48.426;10.868;2024-02-26T00:43:54;8.93;;;5.90;;
16832;SDS011;8533;48.426;10.868;2024-02-26T00:46:19;10.53;;;5.00;;
16832;SDS011;8533;48.426;10.868;2024-02-26T00:48:44;11.10;;;5.73;;
16832;SDS011;8533;48.426;10.868;2024-02-26T00:51:09;10.97;;;6.03;;
16832;SDS011;8533;48.426;10.868;2024-02-26T00:53:35;8.50;;;5.03;;
16832;SDS011;8533;48.426;10.868;2024-02-26T00:56:00;9.70;;;5.40;;
16832;SDS011;8533;48.426;10.868;2024-02-26T00:58:26;8.33;;;5.03;;
16832;SDS011;8533;48.426;10.868;2024-02-26T01:00:51;13.60;;;5.43;;
16832;SDS011;8533;48.426;10.868;2024-02-26T01:03:17;10.40;;;5.97;;
16832;SDS011;8533;48.426;10.868;2024-02-26T01:05:43;11.47;;;5.33;;
16832;SDS011;8533;48.426;10.868;2024-02-26T01:08:08;9.67;;;5.67;;
16832;SDS011;8533;48.426;10.868;2024-02-26T01:10:33;12.70;;;6.63;;
16832;SDS011;8533;48.426;10.868;2024-02-26T01:12:59;9.80;;;5.90;;
16832;SDS011;8533;48.426;10.868;2024-02-26T01:15:24;10.67;;;5.77;;
16832;SDS011;8533;48.426;10.868;2024-02-26T01:17:50;11.37;;;6.37;;
16832;SDS011;8533;48.426;10.868;2024-02-26T01:20:16;10.97;;;6.30;;
16832;SDS011;8533;48.426;10.868;2024-02-26T01:22:42;15.67;;;6.90;;
16832;SDS011;8533;48.426;10.868;2024-02-26T01:25:07;11.37;;;6.53;;
16832;SDS011;8533;48.426;10.868;2024-02-26T01:27:34;13.87;;;6.43;;
16832;SDS011;8533;48.426;10.868;2024-02-26T01:30:00;12.43;;;6.30;;
16832;SDS011;8533;48.426;10.868;2024-02-26T01:32:25;10.70;;;6.33;;
16832;SDS011;8533;48.426;10.868;2024-02-26T01:34:50;11.33;;;6.33;;
16832;SDS011;8533;48.426;10.868;2024-02-26T01:37:15;12.97;;;6.47;;
16832;SDS011;8533;48.426;10.868;2024-02-26T01:39:41;12.90;;;6.10;;
16832;SDS011;8533;48.426;10.868;2024-02-26T01:42:07;14.47;;;7.07;;
16832;SDS011;8533;48.426;10.868;2024-02-26T01:44:32;14.67;;;7.60;;
16832;SDS011;8533;48.426;10.868;2024-02-26T01:46:57;13.03;;;6.97;;
16832;SDS011;8533;48.426;10.868;2024-02-26T01:49:23;14.53;;;7.57;;
16832;SDS011;8533;48.426;10.868;2024-02-26T01:51:49;14.03;;;7.70;;
16832;SDS011;8533;48.426;10.868;2024-02-26T01:54:14;14.10;;;6.77;;
16832;SDS011;8533;48.426;10.868;2024-02-26T01:56:40;14.63;;;7.20;;
16832;SDS011;8533;48.426;10.868;2024-02-26T01:59:06;16.77;;;7.33;;
16832;SDS011;8533;48.426;10.868;2024-02-26T02:01:33;16.20;;;8.00;;
16832;SDS011;8533;48.426;10.868;2024-02-26T02:03:59;17.67;;;8.53;;
16832;SDS011;8533;48.426;10.868;2024-02-26T02:06:25;13.30;;;7.33;;
16832;SDS011;8533;48.426;10.868;2024-02-26T02:08:52;17.30;;;7.33;;
16832;SDS011;8533;48.426;10.868;2024-02-26T02:11:19;15.20;;;7.83;;
16832;SDS011;8533;48.426;10.868;2024-02-26T02:13:45;17.13;;;7.33;;
16832;SDS011;8533;48.426;10.868;2024-02-26T02:16:11;13.17;;;7.77;;
16832;SDS011;8533;48.426;10.868;2024-02-26T02:18:37;15.40;;;8.10;;
16832;SDS011;8533;48.426;10.868;2024-02-26T02:21:02;14.70;;;7.90;;
16832;SDS011;8533;48.426;10.868;2024-02-26T02:23:28;18.13;;;8.23;;
16832;SDS011;8533;48.426;10.868;2024-02-26T02:25:53;16.63;;;8.50;;
16832;SDS011;8533;48.426;10.868;2024-02-26T02:28:20;13.37;;;7.57;;
16832;SDS011;8533;48.426;10.868;2024-02-26T02:30:46;15.33;;;8.43;;
16832;SDS011;8533;48.426;10.868;2024-02-26T02:33:11;14.93;;;7.50;;
16832;SDS011;8533;48.426;10.868;2024-02-26T02:35:37;14.90;;;7.60;;
16832;SDS011;8533;48.426;10.868;2024-02-26T02:38:03;17.20;;;8.23;;
16832;SDS011;8533;48.426;10.868;2024-02-26T02:40:28;15.63;;;7.90;;
16832;SDS011;8533;48.426;10.868;2024-02-26T02:42:53;13.23;;;7.30;;
16832;SDS011;8533;48.426;10.868;2024-02-26T02:45:19;13.17;;;7.53;;
16832;SDS011;8533;48.426;10.868;2024-02-26T02:47:44;16.80;;;8.30;;
16832;SDS011;8533;48.426;10.868;2024-02-26T02:50:09;14.70;;;7.13;;
16832;SDS011;8533;48.426;10.868;2024-02-26T02:52:34;12.87;;;7.13;;
16832;SDS011;8533;48.426;10.868;2024-02-26T02:55:00;13.60;;;7.03;;
16832;SDS011;8533;48.426;10.868;2024-02-26T02:57:26;18.27;;;7.53;;
16832;SDS011;8533;48.426;10.868;2024-02-26T02:59:51;14.03;;;7.17;;
16832;SDS011;8533;48.426;10.868;2024-02-26T03:02:16;15.93;;;7.67;;
16832;SDS011;8533;48.426;10.868;2024-02-26T03:04:42;14.17;;;7.00;;
16832;SDS011;8533;48.426;10.868;2024-02-26T03:07:07;15.27;;;7.43;;
16832;SDS011;8533;48.426;10.868;2024-02-26T03:09:32;13.97;;;7.73;;
16832;SDS011;8533;48.426;10.868;2024-02-26T03:11:58;12.27;;;6.83;;
16832;SDS011;8533;48.426;10.868;2024-02-26T03:14:23;13.50;;;6.70;;
16832;SDS011;8533;48.426;10.868;2024-02-26T03:16:48;14.63;;;7.10;;
16832;SDS011;8533;48.426;10.868;2024-02-26T03:19:14;14.67;;;7.10;;
16832;SDS011;8533;48.426;10.868;2024-02-26T03:21:41;13.90;;;7.00;;
16832;SDS011;8533;48.426;10.868;2024-02-26T03:24:06;15.27;;;7.53;;
16832;SDS011;8533;48.426;10.868;2024-02-26T03:26:34;13.27;;;6.87;;
16832;SDS011;8533;48.426;10.868;2024-02-26T03:28:59;15.87;;;7.23;;
16832;SDS011;8533;48.426;10.868;2024-02-26T03:31:24;10.90;;;6.43;;
16832;SDS011;8533;48.426;10.868;2024-02-26T03:33:49;11.90;;;7.10;;
16832;SDS011;8533;48.426;10.868;2024-02-26T03:36:15;12.40;;;6.97;;
16832;SDS011;8533;48.426;10.868;2024-02-26T03:38:40;13.90;;;7.13;;
16832;SDS011;8533;48.426;10.868;2024-02-26T03:41:05;13.10;;;6.60;;
16832;SDS011;8533;48.426;10.868;2024-02-26T03:43:31;13.03;;;6.83;;
16832;SDS011;8533;48.426;10.868;2024-02-26T03:45:56;13.43;;;7.13;;
16832;SDS011;8533;48.426;10.868;2024-02-26T03:48:22;14.07;;;6.80;;
16832;SDS011;8533;48.426;10.868;2024-02-26T03:50:47;13.33;;;7.13;;
16832;SDS011;8533;48.426;10.868;2024-02-26T03:53:12;13.97;;;7.20;;
16832;SDS011;8533;48.426;10.868;2024-02-26T03:55:38;12.20;;;6.80;;
16832;SDS011;8533;48.426;10.868;2024-02-26T03:58:03;14.93;;;7.03;;
16832;SDS011;8533;48.426;10.868;2024-02-26T04:00:29;12.47;;;6.87;;
16832;SDS011;8533;48.426;10.868;2024-02-26T04:02:55;15.00;;;7.73;;
16832;SDS011;8533;48.426;10.868;2024-02-26T04:05:20;11.53;;;6.60;;
16832;SDS011;8533;48.426;10.868;2024-02-26T04:07:46;13.87;;;7.47;;
16832;SDS011;8533;48.426;10.868;2024-02-26T04:10:11;17.03;;;7.77;;
16832;SDS011;8533;48.426;10.868;2024-02-26T04:12:40;13.10;;;7.07;;
16832;SDS011;8533;48.426;10.868;2024-02-26T04:15:07;13.17;;;7.13;;
16832;SDS011;8533;48.426;10.868;2024-02-26T04:17:33;15.40;;;7.10;;
16832;SDS011;8533;48.426;10.868;2024-02-26T04:19:58;18.40;;;7.33;;
16832;SDS011;8533;48.426;10.868;2024-02-26T04:22:24;13.63;;;7.13;;
16832;SDS011;8533;48.426;10.868;2024-02-26T04:24:49;16.17;;;7.80;;
16832;SDS011;8533;48.426;10.868;2024-02-26T04:27:14;12.47;;;6.50;;
16832;SDS011;8533;48.426;10.868;2024-02-26T04:29:40;13.37;;;7.23;;
16832;SDS011;8533;48.426;10.868;2024-02-26T04:32:05;15.37;;;7.83;;
16832;SDS011;8533;48.426;10.868;2024-02-26T04:34:30;13.13;;;6.70;;
16832;SDS011;8533;48.426;10.868;2024-02-26T04:36:56;12.47;;;6.80;;
16832;SDS011;8533;48.426;10.868;2024-02-26T04:39:21;13.40;;;6.73;;
16832;SDS011;8533;48.426;10.868;2024-02-26T04:41:46;11.03;;;6.33;;
16832;SDS011;8533;48.426;10.868;2024-02-26T04:44:12;14.97;;;7.40;;
16832;SDS011;8533;48.426;10.868;2024-02-26T04:46:37;12.13;;;6.30;;
16832;SDS011;8533;48.426;10.868;2024-02-26T04:49:02;14.47;;;6.93;;
16832;SDS011;8533;48.426;10.868;2024-02-26T04:51:28;16.13;;;7.47;;
16832;SDS011;8533;48.426;10.868;2024-02-26T04:53:53;12.17;;;6.77;;
16832;SDS011;8533;48.426;10.868;2024-02-26T04:56:20;12.83;;;6.73;;
16832;SDS011;8533;48.426;10.868;2024-02-26T04:58:47;12.73;;;6.67;;
16832;SDS011;8533;48.426;10.868;2024-02-26T05:01:13;13.23;;;7.03;;
16832;SDS011;8533;48.426;10.868;2024-02-26T05:03:40;15.97;;;6.93;;
16832;SDS011;8533;48.426;10.868;2024-02-26T05:06:06;13.87;;;7.80;;
16832;SDS011;8533;48.426;10.868;2024-02-26T05:08:31;16.53;;;6.57;;
16832;SDS011;8533;48.426;10.868;2024-02-26T05:10:58;15.67;;;8.03;;
16832;SDS011;8533;48.426;10.868;2024-02-26T05:13:25;14.10;;;7.60;;
16832;SDS011;8533;48.426;10.868;2024-02-26T05:15:50;17.27;;;7.40;;
16832;SDS011;8533;48.426;10.868;2024-02-26T05:18:17;17.23;;;7.87;;
16832;SDS011;8533;48.426;10.868;2024-02-26T05:20:42;16.07;;;7.90;;
16832;SDS011;8533;48.426;10.868;2024-02-26T05:23:08;16.73;;;8.30;;
16832;SDS011;8533;48.426;10.868;2024-02-26T05:25:34;15.27;;;7.77;;
16832;SDS011;8533;48.426;10.868;2024-02-26T05:27:59;16.33;;;8.07;;
16832;SDS011;8533;48.426;10.868;2024-02-26T05:30:25;16.03;;;7.70;;
16832;SDS011;8533;48.426;10.868;2024-02-26T05:32:52;18.87;;;8.10;;
16832;SDS011;8533;48.426;10.868;2024-02-26T05:35:17;18.80;;;7.80;;
16832;SDS011;8533;48.426;10.868;2024-02-26T05:37:42;14.33;;;7.80;;
16832;SDS011;8533;48.426;10.868;2024-02-26T05:40:08;20.30;;;8.60;;
16832;SDS011;8533;48.426;10.868;2024-02-26T05:42:33;18.60;;;8.17;;
16832;SDS011;8533;48.426;10.868;2024-02-26T05:44:59;15.63;;;7.67;;
16832;SDS011;8533;48.426;10.868;2024-02-26T05:47:24;13.50;;;7.13;;
16832;SDS011;8533;48.426;10.868;2024-02-26T05:49:49;14.20;;;7.93;;
16832;SDS011;8533;48.426;10.868;2024-02-26T05:52:15;16.00;;;8.03;;
16832;SDS011;8533;48.426;10.868;2024-02-26T05:54:40;16.23;;;8.07;;
16832;SDS011;8533;48.426;10.868;2024-02-26T05:57:05;17.10;;;7.73;;
16832;SDS011;8533;48.426;10.868;2024-02-26T05:59:30;18.33;;;8.00;;
16832;SDS011;8533;48.426;10.868;2024-02-26T06:01:56;19.93;;;8.57;;
16832;SDS011;8533;48.426;10.868;2024-02-26T06:04:21;18.73;;;8.63;;
16832;SDS011;8533;48.426;10.868;2024-02-26T06:06:46;16.77;;;8.17;;
16832;SDS011;8533;48.426;10.868;2024-02-26T06:09:12;16.33;;;7.93;;
16832;SDS011;8533;48.426;10.868;2024-02-26T06:11:37;16.93;;;8.73;;
16832;SDS011;8533;48.426;10.868;2024-02-26T06:14:02;21.20;;;9.23;;
16832;SDS011;8533;48.426;10.868;2024-02-26T06:16:28;16.97;;;7.83;;
16832;SDS011;8533;48.426;10.868;2024-02-26T06:18:53;17.70;;;8.63;;
16832;SDS011;8533;48.426;10.868;2024-02-26T06:21:18;14.83;;;7.53;;
16832;SDS011;8533;48.426;10.868;2024-02-26T06:23:44;16.47;;;7.83;;
16832;SDS011;8533;48.426;10.868;2024-02-26T06:26:09;14.70;;;7.40;;
16832;SDS011;8533;48.426;10.868;2024-02-26T06:28:35;16.13;;;7.47;;
16832;SDS011;8533;48.426;10.868;2024-02-26T06:31:01;15.30;;;7.90;;
16832;SDS011;8533;48.426;10.868;2024-02-26T06:33:26;16.93;;;7.87;;
16832;SDS011;8533;48.426;10.868;2024-02-26T06:35:51;17.43;;;7.57;;
16832;SDS011;8533;48.426;10.868;2024-02-26T06:38:17;17.53;;;7.13;;
16832;SDS011;8533;48.426;10.868;2024-02-26T06:40:43;17.67;;;8.40;;
16832;SDS011;8533;48.426;10.868;2024-02-26T06:43:09;17.23;;;8.63;;
16832;SDS011;8533;48.426;10.868;2024-02-26T06:45:35;13.60;;;7.47;;
16832;SDS011;8533;48.426;10.868;2024-02-26T06:48:00;16.97;;;9.20;;
16832;SDS011;8533;48.426;10.868;2024-02-26T06:50:25;17.23;;;8.87;;
16832;SDS011;8533;48.426;10.868;2024-02-26T06:52:51;15.07;;;8.17;;
16832;SDS011;8533;48.426;10.868;2024-02-26T06:55:16;20.23;;;8.90;;
16832;SDS011;8533;48.426;10.868;2024-02-26T06:57:42;18.40;;;8.30;;
16832;SDS011;8533;48.426;10.868;2024-02-26T07:00:07;16.50;;;7.63;;
16832;SDS011;8533;48.426;10.868;2024-02-26T07:02:33;16.67;;;8.43;;
16832;SDS011;8533;48.426;10.868;2024-02-26T07:04:58;19.97;;;8.47;;
16832;SDS011;8533;48.426;10.868;2024-02-26T07:07:24;17.57;;;10.53;;
16832;SDS011;8533;48.426;10.868;2024-02-26T07:09:50;22.03;;;10.33;;
16832;SDS011;8533;48.426;10.868;2024-02-26T07:12:15;22.37;;;12.63;;
16832;SDS011;8533;48.426;10.868;2024-02-26T07:14:41;24.67;;;12.47;;
16832;SDS011;8533;48.426;10.868;2024-02-26T07:17:06;20.10;;;9.70;;
16832;SDS011;8533;48.426;10.868;2024-02-26T07:19:33;18.87;;;9.50;;
16832;SDS011;8533;48.426;10.868;2024-02-26T07:21:58;19.07;;;8.33;;
16832;SDS011;8533;48.426;10.868;2024-02-26T07:24:26;23.87;;;9.00;;
16832;SDS011;8533;48.426;10.868;2024-02-26T07:26:52;16.03;;;7.40;;
16832;SDS011;8533;48.426;10.868;2024-02-26T07:29:19;17.70;;;8.47;;
16832;SDS011;8533;48.426;10.868;2024-02-26T07:31:44;14.70;;;8.13;;
16832;SDS011;8533;48.426;10.868;2024-02-26T07:34:10;14.40;;;7.17;;
16832;SDS011;8533;48.426;10.868;2024-02-26T07:36:35;16.20;;;7.77;;
16832;SDS011;8533;48.426;10.868;2024-02-26T07:39:01;13.20;;;7.97;;
16832;SDS011;8533;48.426;10.868;2024-02-26T07:41:26;14.67;;;6.77;;
16832;SDS011;8533;48.426;10.868;2024-02-26T07:43:51;15.07;;;7.87;;
16832;SDS011;8533;48.426;10.868;2024-02-26T07:46:17;13.87;;;7.13;;
16832;SDS011;8533;48.426;10.868;2024-02-26T07:48:42;13.70;;;7.20;;
16832;SDS011;8533;48.426;10.868;2024-02-26T07:51:08;17.07;;;8.27;;
16832;SDS011;8533;48.426;10.868;2024-02-26T07:53:34;16.40;;;7.33;;
16832;SDS011;8533;48.426;10.868;2024-02-26T07:55:59;15.67;;;6.87;;
16832;SDS011;8533;48.426;10.868;2024-02-26T07:58:24;12.40;;;6.37;;
16832;SDS011;8533;48.426;10.868;2024-02-26T08:00:50;13.97;;;7.03;;
16832;SDS011;8533;48.426;10.868;2024-02-26T08:03:15;12.70;;;6.17;;
16832;SDS011;8533;48.426;10.868;2024-02-26T08:05:41;10.53;;;6.00;;
16832;SDS011;8533;48.426;10.868;2024-02-26T08:08:08;11.17;;;6.50;;
16832;SDS011;8533;48.426;10.868;2024-02-26T08:10:33;12.70;;;6.27;;
16832;SDS011;8533;48.426;10.868;2024-02-26T08:12:59;12.53;;;6.13;;
16832;SDS011;8533;48.426;10.868;2024-02-26T08:15:30;13.97;;;6.47;;
16832;SDS011;8533;48.426;10.868;2024-02-26T08:17:56;9.63;;;5.77;;
16832;SDS011;8533;48.426;10.868;2024-02-26T08:20:21;11.97;;;6.07;;
16832;SDS011;8533;48.426;10.868;2024-02-26T08:22:47;13.47;;;6.07;;
16832;SDS011;8533;48.426;10.868;2024-02-26T08:25:12;10.57;;;6.43;;
16832;SDS011;8533;48.426;10.868;2024-02-26T08:27:37;14.90;;;6.83;;
16832;SDS011;8533;48.426;10.868;2024-02-26T08:30:03;12.70;;;6.70;;
16832;SDS011;8533;48.426;10.868;2024-02-26T08:32:28;10.17;;;6.40;;
16832;SDS011;8533;48.426;10.868;2024-02-26T08:34:54;10.97;;;6.70;;
16832;SDS011;8533;48.426;10.868;2024-02-26T08:37:19;11.53;;;6.43;;
16832;SDS011;8533;48.426;10.868;2024-02-26T08:39:44;13.67;;;7.37;;
16832;SDS011;8533;48.426;10.868;2024-02-26T08:42:10;14.53;;;6.80;;
16832;SDS011;8533;48.426;10.868;2024-02-26T08:44:36;12.03;;;6.47;;
16832;SDS011;8533;48.426;10.868;2024-02-26T08:47:01;12.73;;;6.87;;
16832;SDS011;8533;48.426;10.868;2024-02-26T08:49:27;12.67;;;6.43;;
16832;SDS011;8533;48.426;10.868;2024-02-26T08:51:52;10.97;;;6.67;;
16832;SDS011;8533;48.426;10.868;2024-02-26T08:54:18;12.00;;;6.67;;
16832;SDS011;8533;48.426;10.868;2024-02-26T08:56:43;15.33;;;6.70;;
16832;SDS011;8533;48.426;10.868;2024-02-26T08:59:08;9.60;;;6.00;;
16832;SDS011;8533;48.426;10.868;2024-02-26T09:01:34;13.73;;;6.20;;
16832;SDS011;8533;48.426;10.868;2024-02-26T09:03:59;13.47;;;7.00;;
16832;SDS011;8533;48.426;10.868;2024-02-26T09:06:24;16.47;;;7.50;;
16832;SDS011;8533;48.426;10.868;2024-02-26T09:08:50;12.37;;;6.50;;
16832;SDS011;8533;48.426;10.868;2024-02-26T09:11:15;15.10;;;6.83;;
16832;SDS011;8533;48.426;10.868;2024-02-26T09:13:40;13.43;;;7.20;;
16832;SDS011;8533;48.426;10.868;2024-02-26T09:16:07;9.47;;;5.70;;
16832;SDS011;8533;48.426;10.868;2024-02-26T09:18:32;10.47;;;5.63;;
16832;SDS011;8533;48.426;10.868;2024-02-26T09:20:57;10.60;;;5.83;;
16832;SDS011;8533;48.426;10.868;2024-02-26T09:23:23;8.87;;;5.83;;
16832;SDS011;8533;48.426;10.868;2024-02-26T09:25:48;11.97;;;5.70;;
16832;SDS011;8533;48.426;10.868;2024-02-26T09:28:13;10.57;;;6.20;;
16832;SDS011;8533;48.426;10.868;2024-02-26T09:30:41;12.80;;;6.53;;
16832;SDS011;8533;48.426;10.868;2024-02-26T09:33:07;12.20;;;5.83;;
16832;SDS011;8533;48.426;10.868;2024-02-26T09:35:32;12.80;;;6.33;;
16832;SDS011;8533;48.426;10.868;2024-02-26T09:37:57;10.13;;;6.20;;
16832;SDS011;8533;48.426;10.868;2024-02-26T09:40:22;13.13;;;7.33;;
16832;SDS011;8533;48.426;10.868;2024-02-26T09:42:48;12.97;;;6.20;;
16832;SDS011;8533;48.426;10.868;2024-02-26T09:45:21;11.47;;;6.20;;
16832;SDS011;8533;48.426;10.868;2024-02-26T09:47:49;9.37;;;5.87;;
16832;SDS011;8533;48.426;10.868;2024-02-26T09:50:16;9.37;;;5.43;;
16832;SDS011;8533;48.426;10.868;2024-02-26T09:52:43;46.83;;;18.67;;
16832;SDS011;8533;48.426;10.868;2024-02-26T09:55:08;83.67;;;30.33;;
16832;SDS011;8533;48.426;10.868;2024-02-26T09:57:37;18.47;;;8.77;;
16832;SDS011;8533;48.426;10.868;2024-02-26T10:00:03;10.70;;;5.70;;
16832;SDS011;8533;48.426;10.868;2024-02-26T10:02:30;16.10;;;9.10;;
16832;SDS011;8533;48.426;10.868;2024-02-26T10:04:57;11.30;;;5.87;;
16832;SDS011;8533;48.426;10.868;2024-02-26T10:07:26;9.17;;;5.87;;
16832;SDS011;8533;48.426;10.868;2024-02-26T10:09:55;9.87;;;5.83;;
16832;SDS011;8533;48.426;10.868;2024-02-26T10:12:20;8.17;;;4.93;;
16832;SDS011;8533;48.426;10.868;2024-02-26T10:14:46;9.73;;;5.97;;
16832;SDS011;8533;48.426;10.868;2024-02-26T10:17:12;9.43;;;5.17;;
16832;SDS011;8533;48.426;10.868;2024-02-26T10:19:37;9.03;;;5.50;;
16832;SDS011;8533;48.426;10.868;2024-02-26T10:22:03;8.63;;;5.10;;
16832;SDS011;8533;48.426;10.868;2024-02-26T10:24:29;8.83;;;5.13;;
16832;SDS011;8533;48.426;10.868;2024-02-26T10:26:55;9.57;;;5.43;;
16832;SDS011;8533;48.426;10.868;2024-02-26T10:29:23;8.40;;;5.37;;
16832;SDS011;8533;48.426;10.868;2024-02-26T10:31:50;11.03;;;6.20;;
16832;SDS011;8533;48.426;10.868;2024-02-26T10:34:16;12.83;;;5.50;;
16832;SDS011;8533;48.426;10.868;2024-02-26T10:36:42;13.27;;;6.07;;
16832;SDS011;8533;48.426;10.868;2024-02-26T10:39:09;9.33;;;5.27;;
16832;SDS011;8533;48.426;10.868;2024-02-26T10:41:36;8.57;;;5.33;;
16832;SDS011;8533;48.426;10.868;2024-02-26T10:44:02;9.27;;;5.33;;
16832;SDS011;8533;48.426;10.868;2024-02-26T10:46:27;8.43;;;5.20;;
16832;SDS011;8533;48.426;10.868;2024-02-26T10:48:53;9.43;;;5.40;;
16832;SDS011;8533;48.426;10.868;2024-02-26T10:51:28;8.20;;;4.57;;
16832;SDS011;8533;48.426;10.868;2024-02-26T10:53:55;8.80;;;5.80;;
16832;SDS011;8533;48.426;10.868;2024-02-26T10:56:30;9.10;;;5.30;;
16832;SDS011;8533;48.426;10.868;2024-02-26T10:58:59;10.70;;;5.50;;
16832;SDS011;8533;48.426;10.868;2024-02-26T11:01:26;9.30;;;5.70;;
16832;SDS011;8533;48.426;10.868;2024-02-26T11:03:54;10.67;;;5.40;;
16832;SDS011;8533;48.426;10.868;2024-02-26T11:06:20;9.70;;;5.73;;
16832;SDS011;8533;48.426;10.868;2024-02-26T11:08:47;9.53;;;5.73;;
16832;SDS011;8533;48.426;10.868;2024-02-26T11:11:14;9.00;;;5.40;;
16832;SDS011;8533;48.426;10.868;2024-02-26T11:13:42;10.33;;;5.20;;
16832;SDS011;8533;48.426;10.868;2024-02-26T11:16:11;8.57;;;5.50;;
16832;SDS011;8533;48.426;10.868;2024-02-26T11:18:37;9.37;;;5.67;;
16832;SDS011;8533;48.426;10.868;2024-02-26T11:21:04;10.27;;;5.73;;
16832;SDS011;8533;48.426;10.868;2024-02-26T11:23:33;11.53;;;6.50;;
16832;SDS011;8533;48.426;10.868;2024-02-26T11:26:01;9.83;;;5.90;;
16832;SDS011;8533;48.426;10.868;2024-02-26T11:28:28;10.30;;;6.17;;
16832;SDS011;8533;48.426;10.868;2024-02-26T11:30:55;9.07;;;5.10;;
16832;SDS011;8533;48.426;10.868;2024-02-26T11:33:22;8.83;;;5.87;;
16832;SDS011;8533;48.426;10.868;2024-02-26T11:35:47;10.97;;;5.67;;
16832;SDS011;8533;48.426;10.868;2024-02-26T11:38:24;8.07;;;5.23;;
16832;SDS011;8533;48.426;10.868;2024-02-26T11:40:52;8.33;;;5.23;;
16832;SDS011;8533;48.426;10.868;2024-02-26T11:43:18;8.47;;;5.53;;
16832;SDS011;8533;48.426;10.868;2024-02-26T11:45:48;8.57;;;4.97;;
16832;SDS011;8533;48.426;10.868;2024-02-26T11:48:15;9.43;;;5.00;;
16832;SDS011;8533;48.426;10.868;2024-02-26T11:50:45;8.93;;;4.77;;
16832;SDS011;8533;48.426;10.868;2024-02-26T11:53:21;6.93;;;4.17;;
16832;SDS011;8533;48.426;10.868;2024-02-26T11:58:58;8.23;;;4.43;;
16832;SDS011;8533;48.426;10.868;2024-02-26T12:01:40;8.67;;;4.47;;
16832;SDS011;8533;48.426;10.868;2024-02-26T12:06:46;11.27;;;5.10;;
16832;SDS011;8533;48.426;10.868;2024-02-26T12:09:13;8.27;;;4.70;;
16832;SDS011;8533;48.426;10.868;2024-02-26T12:11:56;9.67;;;4.97;;
16832;SDS011;8533;48.426;10.868;2024-02-26T12:14:24;7.20;;;4.70;;
16832;SDS011;8533;48.426;10.868;2024-02-26T12:16:50;7.23;;;4.87;;
16832;SDS011;8533;48.426;10.868;2024-02-26T12:19:17;8.07;;;5.37;;
16832;SDS011;8533;48.426;10.868;2024-02-26T12:21:43;9.33;;;5.10;;
16832;SDS011;8533;48.426;10.868;2024-02-26T12:24:12;8.10;;;4.80;;
16832;SDS011;8533;48.426;10.868;2024-02-26T12:26:39;8.40;;;4.90;;
16832;SDS011;8533;48.426;10.868;2024-02-26T12:29:05;10.60;;;4.63;;
16832;SDS011;8533;48.426;10.868;2024-02-26T12:31:31;9.10;;;5.57;;
16832;SDS011;8533;48.426;10.868;2024-02-26T12:33:58;7.30;;;5.00;;
16832;SDS011;8533;48.426;10.868;2024-02-26T12:36:24;10.80;;;5.40;;
16832;SDS011;8533;48.426;10.868;2024-02-26T12:38:52;10.00;;;6.17;;
16832;SDS011;8533;48.426;10.868;2024-02-26T12:41:17;11.43;;;6.03;;
16832;SDS011;8533;48.426;10.868;2024-02-26T12:43:43;9.70;;;6.10;;
16832;SDS011;8533;48.426;10.868;2024-02-26T12:46:08;12.60;;;6.73;;
16832;SDS011;8533;48.426;10.868;2024-02-26T12:48:34;9.50;;;5.77;;
16832;SDS011;8533;48.426;10.868;2024-02-26T12:50:59;8.40;;;5.27;;
16832;SDS011;8533;48.426;10.868;2024-02-26T12:53:25;9.40;;;5.40;;
16832;SDS011;8533;48.426;10.868;2024-02-26T12:55:52;9.77;;;4.90;;
16832;SDS011;8533;48.426;10.868;2024-02-26T12:58:21;8.60;;;5.83;;
16832;SDS011;8533;48.426;10.868;2024-02-26T13:00:50;9.33;;;4.93;;
16832;SDS011;8533;48.426;10.868;2024-02-26T13:03:19;9.70;;;4.50;;
16832;SDS011;8533;48.426;10.868;2024-02-26T13:05:46;11.30;;;5.53;;
16832;SDS011;8533;48.426;10.868;2024-02-26T13:08:17;8.03;;;5.07;;
16832;SDS011;8533;48.426;10.868;2024-02-26T13:10:45;8.80;;;5.30;;
16832;SDS011;8533;48.426;10.868;2024-02-26T13:13:11;8.73;;;5.20;;
16832;SDS011;8533;48.426;10.868;2024-02-26T13:15:36;14.77;;;5.90;;
16832;SDS011;8533;48.426;10.868;2024-02-26T13:18:08;9.77;;;5.60;;
16832;SDS011;8533;48.426;10.868;2024-02-26T13:20:38;8.23;;;5.17;;
16832;SDS011;8533;48.426;10.868;2024-02-26T13:23:06;9.23;;;5.77;;
16832;SDS011;8533;48.426;10.868;2024-02-26T13:25:33;8.77;;;5.50;;
16832;SDS011;8533;48.426;10.868;2024-02-26T13:28:08;9.50;;;5.70;;
16832;SDS011;8533;48.426;10.868;2024-02-26T13:30:38;15.13;;;6.53;;
16832;SDS011;8533;48.426;10.868;2024-02-26T13:33:10;10.23;;;5.97;;
16832;SDS011;8533;48.426;10.868;2024-02-26T13:35:36;10.23;;;5.60;;
16832;SDS011;8533;48.426;10.868;2024-02-26T13:38:04;11.17;;;6.03;;
16832;SDS011;8533;48.426;10.868;2024-02-26T13:40:29;11.03;;;5.27;;
16832;SDS011;8533;48.426;10.868;2024-02-26T13:42:55;7.80;;;5.10;;
16832;SDS011;8533;48.426;10.868;2024-02-26T13:45:20;9.30;;;5.60;;
16832;SDS011;8533;48.426;10.868;2024-02-26T13:47:45;8.20;;;5.60;;
16832;SDS011;8533;48.426;10.868;2024-02-26T13:50:10;9.27;;;5.40;;
16832;SDS011;8533;48.426;10.868;2024-02-26T13:52:36;8.63;;;5.30;;
16832;SDS011;8533;48.426;10.868;2024-02-26T13:55:01;6.97;;;5.00;;
16832;SDS011;8533;48.426;10.868;2024-02-26T13:57:28;10.13;;;6.00;;
16832;SDS011;8533;48.426;10.868;2024-02-26T13:59:53;11.80;;;5.90;;
16832;SDS011;8533;48.426;10.868;2024-02-26T14:02:19;10.73;;;6.30;;
16832;SDS011;8533;48.426;10.868;2024-02-26T14:04:45;10.60;;;6.27;;
16832;SDS011;8533;48.426;10.868;2024-02-26T14:07:11;10.50;;;6.53;;
16832;SDS011;8533;48.426;10.868;2024-02-26T14:09:37;12.23;;;6.37;;
16832;SDS011;8533;48.426;10.868;2024-02-26T14:12:02;10.73;;;6.50;;
16832;SDS011;8533;48.426;10.868;2024-02-26T14:14:28;11.03;;;6.27;;
16832;SDS011;8533;48.426;10.868;2024-02-26T14:16:53;9.70;;;5.83;;
16832;SDS011;8533;48.426;10.868;2024-02-26T14:19:19;12.73;;;6.40;;
16832;SDS011;8533;48.426;10.868;2024-02-26T14:21:44;12.37;;;5.97;;
16832;SDS011;8533;48.426;10.868;2024-02-26T14:24:09;10.00;;;6.30;;
16832;SDS011;8533;48.426;10.868;2024-02-26T14:26:34;10.87;;;6.00;;
16832;SDS011;8533;48.426;10.868;2024-02-26T14:29:00;13.67;;;6.90;;
16832;SDS011;8533;48.426;10.868;2024-02-26T14:31:25;11.13;;;6.47;;
16832;SDS011;8533;48.426;10.868;2024-02-26T14:33:51;12.30;;;6.77;;
16832;SDS011;8533;48.426;10.868;2024-02-26T14:36:18;10.83;;;6.10;;